sensor_id;sensor_type;location;lat;lon;timestamp;temperature;humidity
13794;DHT22;31160;49.500;7.772;2023-04-25T00:00:17;8.70;99.90
13794;DHT22;31160;49.500;7.772;2023-04-25T00:02:43;8.70;99.90
13794;DHT22;31160;49.500;7.772;2023-04-25T00:05:10;8.60;99.90
13794;DHT22;31160;49.500;7.772;2023-04-25T00:07:38;8.70;99.90
13794;DHT22;31160;49.500;7.772;2023-04-25T00:10:05;8.80;99.90
13794;DHT22;31160;49.500;7.772;2023-04-25T00:12:32;8.80;99.90
13794;DHT22;31160;49.500;7.772;2023-04-25T00:14:59;8.70;99.90
13794;DHT22;31160;49.500;7.772;2023-04-25T00:17:26;8.60;99.90
13794;DHT22;31160;49.500;7.772;2023-04-25T00:19:53;8.60;99.90
13794;DHT22;31160;49.500;7.772;2023-04-25T00:22:20;8.70;99.90
13794;DHT22;31160;49.500;7.772;2023-04-25T00:24:47;8.60;99.90
13794;DHT22;31160;49.500;7.772;2023-04-25T00:27:14;8.70;99.90
13794;DHT22;31160;49.500;7.772;2023-04-25T00:29:41;8.70;99.90
13794;DHT22;31160;49.500;7.772;2023-04-25T00:32:08;8.70;99.90
13794;DHT22;31160;49.500;7.772;2023-04-25T00:34:35;8.70;99.90
13794;DHT22;31160;49.500;7.772;2023-04-25T00:37:02;8.70;99.90
13794;DHT22;31160;49.500;7.772;2023-04-25T00:39:29;8.60;99.90
13794;DHT22;31160;49.500;7.772;2023-04-25T00:41:56;8.50;99.90
13794;DHT22;31160;49.500;7.772;2023-04-25T00:44:24;8.50;99.90
13794;DHT22;31160;49.500;7.772;2023-04-25T00:46:52;8.30;99.90
13794;DHT22;31160;49.500;7.772;2023-04-25T00:49:18;8.20;99.90
13794;DHT22;31160;49.500;7.772;2023-04-25T00:51:45;8.40;99.90
13794;DHT22;31160;49.500;7.772;2023-04-25T00:54:12;8.40;99.90
13794;DHT22;31160;49.500;7.772;2023-04-25T00:56:40;8.50;99.90
13794;DHT22;31160;49.500;7.772;2023-04-25T00:59:09;8.60;99.90
13794;DHT22;31160;49.500;7.772;2023-04-25T01:01:36;8.60;99.90
13794;DHT22;31160;49.500;7.772;2023-04-25T01:04:04;8.60;99.90
13794;DHT22;31160;49.500;7.772;2023-04-25T01:06:31;8.50;99.90
13794;DHT22;31160;49.500;7.772;2023-04-25T01:08:59;8.50;99.90
13794;DHT22;31160;49.500;7.772;2023-04-25T01:11:26;8.40;99.90
13794;DHT22;31160;49.500;7.772;2023-04-25T01:13:53;8.50;99.90
13794;DHT22;31160;49.500;7.772;2023-04-25T01:16:19;8.40;99.90
13794;DHT22;31160;49.500;7.772;2023-04-25T01:18:47;8.40;99.90
13794;DHT22;31160;49.500;7.772;2023-04-25T01:21:14;8.40;99.90
13794;DHT22;31160;49.500;7.772;2023-04-25T01:23:42;8.40;99.90
13794;DHT22;31160;49.500;7.772;2023-04-25T01:26:10;8.10;99.90
13794;DHT22;31160;49.500;7.772;2023-04-25T01:28:38;8.20;99.90
13794;DHT22;31160;49.500;7.772;2023-04-25T01:31:08;8.10;99.90
13794;DHT22;31160;49.500;7.772;2023-04-25T01:33:35;8.00;99.90
13794;DHT22;31160;49.500;7.772;2023-04-25T01:36:02;8.00;99.90
13794;DHT22;31160;49.500;7.772;2023-04-25T01:38:29;8.00;99.90
13794;DHT22;31160;49.500;7.772;2023-04-25T01:40:56;8.10;99.90
13794;DHT22;31160;49.500;7.772;2023-04-25T01:43:23;8.10;99.90
13794;DHT22;31160;49.500;7.772;2023-04-25T01:45:50;7.90;99.90
13794;DHT22;31160;49.500;7.772;2023-04-25T01:48:18;7.90;99.90
13794;DHT22;31160;49.500;7.772;2023-04-25T01:50:47;8.00;99.90
13794;DHT22;31160;49.500;7.772;2023-04-25T01:53:14;8.00;99.90
13794;DHT22;31160;49.500;7.772;2023-04-25T01:55:43;8.10;99.90
13794;DHT22;31160;49.500;7.772;2023-04-25T01:58:13;8.00;99.90
13794;DHT22;31160;49.500;7.772;2023-04-25T02:01:03;8.10;99.90
13794;DHT22;31160;49.500;7.772;2023-04-25T02:03:38;8.20;99.90
13794;DHT22;31160;49.500;7.772;2023-04-25T02:06:10;8.10;99.90
13794;DHT22;31160;49.500;7.772;2023-04-25T02:08:41;8.10;99.90
13794;DHT22;31160;49.500;7.772;2023-04-25T02:11:09;8.00;99.90
13794;DHT22;31160;49.500;7.772;2023-04-25T02:13:42;8.10;99.90
13794;DHT22;31160;49.500;7.772;2023-04-25T02:16:27;8.10;99.90
13794;DHT22;31160;49.500;7.772;2023-04-25T02:18:54;8.20;99.90
13794;DHT22;31160;49.500;7.772;2023-04-25T02:21:21;8.20;99.90
13794;DHT22;31160;49.500;7.772;2023-04-25T02:23:48;8.20;99.90
13794;DHT22;31160;49.500;7.772;2023-04-25T02:26:16;8.20;99.90
13794;DHT22;31160;49.500;7.772;2023-04-25T02:28:42;8.20;99.90
13794;DHT22;31160;49.500;7.772;2023-04-25T02:31:09;8.30;99.90
13794;DHT22;31160;49.500;7.772;2023-04-25T02:33:36;8.30;99.90
13794;DHT22;31160;49.500;7.772;2023-04-25T02:36:04;8.30;99.90
13794;DHT22;31160;49.500;7.772;2023-04-25T02:38:31;8.30;99.90
13794;DHT22;31160;49.500;7.772;2023-04-25T02:40:58;8.30;99.90
13794;DHT22;31160;49.500;7.772;2023-04-25T02:43:25;8.20;99.90
13794;DHT22;31160;49.500;7.772;2023-04-25T02:45:52;8.20;99.90
13794;DHT22;31160;49.500;7.772;2023-04-25T02:48:18;8.00;99.90
13794;DHT22;31160;49.500;7.772;2023-04-25T02:50:45;8.00;99.90
13794;DHT22;31160;49.500;7.772;2023-04-25T02:53:12;8.00;99.90
13794;DHT22;31160;49.500;7.772;2023-04-25T02:55:44;8.10;99.90
13794;DHT22;31160;49.500;7.772;2023-04-25T02:58:11;8.10;99.90
13794;DHT22;31160;49.500;7.772;2023-04-25T03:00:45;8.20;99.90
13794;DHT22;31160;49.500;7.772;2023-04-25T03:03:12;8.10;99.90
13794;DHT22;31160;49.500;7.772;2023-04-25T03:05:38;8.10;99.90
13794;DHT22;31160;49.500;7.772;2023-04-25T03:08:05;8.20;99.90
13794;DHT22;31160;49.500;7.772;2023-04-25T03:10:33;8.30;99.90
13794;DHT22;31160;49.500;7.772;2023-04-25T03:13:04;8.20;99.90
13794;DHT22;31160;49.500;7.772;2023-04-25T03:15:31;8.20;99.90
13794;DHT22;31160;49.500;7.772;2023-04-25T03:17:57;8.30;99.90
13794;DHT22;31160;49.500;7.772;2023-04-25T03:20:24;8.20;99.90
13794;DHT22;31160;49.500;7.772;2023-04-25T03:22:51;8.20;99.90
13794;DHT22;31160;49.500;7.772;2023-04-25T03:25:18;8.30;99.90
13794;DHT22;31160;49.500;7.772;2023-04-25T03:27:45;8.10;99.90
13794;DHT22;31160;49.500;7.772;2023-04-25T03:30:12;8.10;99.90
13794;DHT22;31160;49.500;7.772;2023-04-25T03:32:40;8.20;99.90
13794;DHT22;31160;49.500;7.772;2023-04-25T03:35:07;8.20;99.90
13794;DHT22;31160;49.500;7.772;2023-04-25T03:37:34;8.30;99.90
13794;DHT22;31160;49.500;7.772;2023-04-25T03:40:01;8.30;99.90
13794;DHT22;31160;49.500;7.772;2023-04-25T03:42:48;8.20;99.90
13794;DHT22;31160;49.500;7.772;2023-04-25T03:45:15;8.10;99.90
13794;DHT22;31160;49.500;7.772;2023-04-25T03:47:41;8.10;99.90
13794;DHT22;31160;49.500;7.772;2023-04-25T03:50:09;8.10;99.90
13794;DHT22;31160;49.500;7.772;2023-04-25T03:52:36;8.10;99.90
13794;DHT22;31160;49.500;7.772;2023-04-25T03:55:03;8.10;99.90
13794;DHT22;31160;49.500;7.772;2023-04-25T03:57:31;8.30;99.90
13794;DHT22;31160;49.500;7.772;2023-04-25T03:59:58;8.30;99.90
13794;DHT22;31160;49.500;7.772;2023-04-25T04:02:26;8.20;99.90
13794;DHT22;31160;49.500;7.772;2023-04-25T04:04:53;8.10;99.90
13794;DHT22;31160;49.500;7.772;2023-04-25T04:07:20;8.10;99.90
13794;DHT22;31160;49.500;7.772;2023-04-25T04:09:50;8.00;99.90
13794;DHT22;31160;49.500;7.772;2023-04-25T04:12:23;8.10;99.90
13794;DHT22;31160;49.500;7.772;2023-04-25T04:14:50;8.10;99.90
13794;DHT22;31160;49.500;7.772;2023-04-25T04:17:17;8.10;99.90
13794;DHT22;31160;49.500;7.772;2023-04-25T04:19:44;8.10;99.90
13794;DHT22;31160;49.500;7.772;2023-04-25T04:22:15;8.10;99.90
13794;DHT22;31160;49.500;7.772;2023-04-25T04:24:42;8.20;99.90
13794;DHT22;31160;49.500;7.772;2023-04-25T04:27:19;8.20;99.90
13794;DHT22;31160;49.500;7.772;2023-04-25T04:29:53;8.20;99.90
13794;DHT22;31160;49.500;7.772;2023-04-25T04:32:30;8.20;99.90
13794;DHT22;31160;49.500;7.772;2023-04-25T04:34:59;8.20;99.90
13794;DHT22;31160;49.500;7.772;2023-04-25T04:37:26;8.20;99.90
13794;DHT22;31160;49.500;7.772;2023-04-25T04:39:53;8.30;99.90
13794;DHT22;31160;49.500;7.772;2023-04-25T04:42:31;8.40;99.90
13794;DHT22;31160;49.500;7.772;2023-04-25T04:45:04;8.40;99.90
13794;DHT22;31160;49.500;7.772;2023-04-25T04:47:46;8.50;99.90
13794;DHT22;31160;49.500;7.772;2023-04-25T04:50:33;8.50;99.90
13794;DHT22;31160;49.500;7.772;2023-04-25T04:53:15;8.50;99.90
13794;DHT22;31160;49.500;7.772;2023-04-25T04:55:57;8.60;99.90
13794;DHT22;31160;49.500;7.772;2023-04-25T04:58:31;8.60;99.90
13794;DHT22;31160;49.500;7.772;2023-04-25T05:01:25;8.60;99.90
13794;DHT22;31160;49.500;7.772;2023-04-25T05:04:13;8.70;99.90
13794;DHT22;31160;49.500;7.772;2023-04-25T05:06:48;8.60;99.90
13794;DHT22;31160;49.500;7.772;2023-04-25T05:09:15;8.60;99.90
13794;DHT22;31160;49.500;7.772;2023-04-25T05:11:54;8.50;99.90
13794;DHT22;31160;49.500;7.772;2023-04-25T05:14:43;8.40;99.90
13794;DHT22;31160;49.500;7.772;2023-04-25T05:17:29;8.40;99.90
13794;DHT22;31160;49.500;7.772;2023-04-25T05:20:09;8.40;99.90
13794;DHT22;31160;49.500;7.772;2023-04-25T05:22:54;8.40;99.90
13794;DHT22;31160;49.500;7.772;2023-04-25T05:25:39;8.40;99.90
13794;DHT22;31160;49.500;7.772;2023-04-25T05:28:17;8.50;99.90
13794;DHT22;31160;49.500;7.772;2023-04-25T05:31:12;8.40;99.90
13794;DHT22;31160;49.500;7.772;2023-04-25T05:33:48;8.50;99.90
13794;DHT22;31160;49.500;7.772;2023-04-25T05:36:18;8.40;99.90
13794;DHT22;31160;49.500;7.772;2023-04-25T05:38:45;8.40;99.90
13794;DHT22;31160;49.500;7.772;2023-04-25T05:41:18;8.50;99.90
13794;DHT22;31160;49.500;7.772;2023-04-25T05:43:58;8.50;99.90
13794;DHT22;31160;49.500;7.772;2023-04-25T05:46:31;8.50;99.90
13794;DHT22;31160;49.500;7.772;2023-04-25T05:49:13;8.60;99.90
13794;DHT22;31160;49.500;7.772;2023-04-25T05:51:42;8.70;99.90
13794;DHT22;31160;49.500;7.772;2023-04-25T05:54:27;8.70;99.90
13794;DHT22;31160;49.500;7.772;2023-04-25T05:56:57;8.70;99.90
13794;DHT22;31160;49.500;7.772;2023-04-25T05:59:24;8.70;99.90
13794;DHT22;31160;49.500;7.772;2023-04-25T06:01:51;8.70;99.90
13794;DHT22;31160;49.500;7.772;2023-04-25T06:04:19;8.70;99.90
13794;DHT22;31160;49.500;7.772;2023-04-25T06:06:46;8.70;99.90
13794;DHT22;31160;49.500;7.772;2023-04-25T06:09:13;8.80;99.90
13794;DHT22;31160;49.500;7.772;2023-04-25T06:11:40;8.60;99.90
13794;DHT22;31160;49.500;7.772;2023-04-25T06:14:07;8.60;99.90
13794;DHT22;31160;49.500;7.772;2023-04-25T06:16:37;8.70;99.90
13794;DHT22;31160;49.500;7.772;2023-04-25T06:19:05;8.70;99.90
13794;DHT22;31160;49.500;7.772;2023-04-25T06:21:32;8.70;99.90
13794;DHT22;31160;49.500;7.772;2023-04-25T06:23:59;8.80;99.90
13794;DHT22;31160;49.500;7.772;2023-04-25T06:26:27;8.80;99.90
13794;DHT22;31160;49.500;7.772;2023-04-25T06:28:54;8.70;99.90
13794;DHT22;31160;49.500;7.772;2023-04-25T06:31:21;8.70;99.90
13794;DHT22;31160;49.500;7.772;2023-04-25T06:33:49;8.70;99.90
13794;DHT22;31160;49.500;7.772;2023-04-25T06:36:16;8.60;99.90
13794;DHT22;31160;49.500;7.772;2023-04-25T06:38:46;8.70;99.90
13794;DHT22;31160;49.500;7.772;2023-04-25T06:41:13;8.70;99.90
13794;DHT22;31160;49.500;7.772;2023-04-25T06:43:40;8.70;99.90
13794;DHT22;31160;49.500;7.772;2023-04-25T06:46:21;8.70;99.90
13794;DHT22;31160;49.500;7.772;2023-04-25T06:48:49;8.80;99.90
13794;DHT22;31160;49.500;7.772;2023-04-25T06:51:18;8.80;99.90
13794;DHT22;31160;49.500;7.772;2023-04-25T06:53:45;8.80;99.90
13794;DHT22;31160;49.500;7.772;2023-04-25T06:56:25;8.90;99.90
13794;DHT22;31160;49.500;7.772;2023-04-25T06:58:59;9.10;99.90
13794;DHT22;31160;49.500;7.772;2023-04-25T07:04:15;9.30;99.90
13794;DHT22;31160;49.500;7.772;2023-04-25T07:06:48;9.40;99.90
13794;DHT22;31160;49.500;7.772;2023-04-25T07:09:19;9.40;99.90
13794;DHT22;31160;49.500;7.772;2023-04-25T07:11:50;9.40;99.90
13794;DHT22;31160;49.500;7.772;2023-04-25T07:14:17;9.50;99.90
13794;DHT22;31160;49.500;7.772;2023-04-25T07:16:44;9.40;99.90
13794;DHT22;31160;49.500;7.772;2023-04-25T07:19:11;9.40;99.90
13794;DHT22;31160;49.500;7.772;2023-04-25T07:21:38;9.30;99.90
13794;DHT22;31160;49.500;7.772;2023-04-25T07:24:05;9.20;99.90
13794;DHT22;31160;49.500;7.772;2023-04-25T07:26:36;9.20;99.90
13794;DHT22;31160;49.500;7.772;2023-04-25T07:29:18;9.20;99.90
13794;DHT22;31160;49.500;7.772;2023-04-25T07:31:45;9.10;99.90
13794;DHT22;31160;49.500;7.772;2023-04-25T07:34:12;9.10;99.90
13794;DHT22;31160;49.500;7.772;2023-04-25T07:36:39;9.10;99.90
13794;DHT22;31160;49.500;7.772;2023-04-25T07:39:06;8.80;99.90
13794;DHT22;31160;49.500;7.772;2023-04-25T07:41:34;8.40;99.90
13794;DHT22;31160;49.500;7.772;2023-04-25T07:44:01;8.20;99.90
13794;DHT22;31160;49.500;7.772;2023-04-25T07:46:29;8.10;99.90
13794;DHT22;31160;49.500;7.772;2023-04-25T07:48:56;8.00;99.90
13794;DHT22;31160;49.500;7.772;2023-04-25T07:51:23;8.00;99.90
13794;DHT22;31160;49.500;7.772;2023-04-25T07:53:53;8.00;99.90
13794;DHT22;31160;49.500;7.772;2023-04-25T07:56:20;8.10;99.90
13794;DHT22;31160;49.500;7.772;2023-04-25T07:58:48;8.00;99.90
13794;DHT22;31160;49.500;7.772;2023-04-25T08:01:17;8.40;99.90
13794;DHT22;31160;49.500;7.772;2023-04-25T08:04:05;8.60;99.90
13794;DHT22;31160;49.500;7.772;2023-04-25T08:06:46;8.60;99.90
13794;DHT22;31160;49.500;7.772;2023-04-25T08:09:17;8.60;99.90
13794;DHT22;31160;49.500;7.772;2023-04-25T08:11:44;8.50;99.90
13794;DHT22;31160;49.500;7.772;2023-04-25T08:14:14;8.00;99.90
13794;DHT22;31160;49.500;7.772;2023-04-25T08:16:42;7.80;99.90
13794;DHT22;31160;49.500;7.772;2023-04-25T08:19:10;7.90;99.90
13794;DHT22;31160;49.500;7.772;2023-04-25T08:21:37;7.80;99.90
13794;DHT22;31160;49.500;7.772;2023-04-25T08:24:08;7.90;99.90
13794;DHT22;31160;49.500;7.772;2023-04-25T08:26:37;8.10;99.90
13794;DHT22;31160;49.500;7.772;2023-04-25T08:29:06;8.10;99.90
13794;DHT22;31160;49.500;7.772;2023-04-25T08:31:37;8.00;99.90
13794;DHT22;31160;49.500;7.772;2023-04-25T08:34:04;7.90;99.90
13794;DHT22;31160;49.500;7.772;2023-04-25T08:36:42;7.90;99.90
13794;DHT22;31160;49.500;7.772;2023-04-25T08:39:38;8.00;99.90
13794;DHT22;31160;49.500;7.772;2023-04-25T08:42:27;8.00;99.90
13794;DHT22;31160;49.500;7.772;2023-04-25T08:44:55;8.00;99.90
13794;DHT22;31160;49.500;7.772;2023-04-25T08:47:27;8.00;99.90
13794;DHT22;31160;49.500;7.772;2023-04-25T08:49:57;8.10;99.90
13794;DHT22;31160;49.500;7.772;2023-04-25T08:52:29;8.20;99.90
13794;DHT22;31160;49.500;7.772;2023-04-25T08:54:57;8.30;99.90
13794;DHT22;31160;49.500;7.772;2023-04-25T08:57:27;8.30;99.90
13794;DHT22;31160;49.500;7.772;2023-04-25T08:59:56;8.40;99.90
13794;DHT22;31160;49.500;7.772;2023-04-25T09:02:24;8.50;99.90
13794;DHT22;31160;49.500;7.772;2023-04-25T09:04:53;8.60;99.90
13794;DHT22;31160;49.500;7.772;2023-04-25T09:07:21;8.50;99.90
13794;DHT22;31160;49.500;7.772;2023-04-25T09:09:49;8.60;99.90
13794;DHT22;31160;49.500;7.772;2023-04-25T09:12:19;8.70;99.90
13794;DHT22;31160;49.500;7.772;2023-04-25T09:15:05;8.60;99.90
13794;DHT22;31160;49.500;7.772;2023-04-25T09:18:01;8.60;99.90
13794;DHT22;31160;49.500;7.772;2023-04-25T09:20:41;8.50;99.90
13794;DHT22;31160;49.500;7.772;2023-04-25T09:23:27;8.60;99.90
13794;DHT22;31160;49.500;7.772;2023-04-25T09:25:53;8.80;99.90
13794;DHT22;31160;49.500;7.772;2023-04-25T09:28:25;8.80;99.90
13794;DHT22;31160;49.500;7.772;2023-04-25T09:30:58;9.00;99.90
13794;DHT22;31160;49.500;7.772;2023-04-25T09:33:41;9.20;99.90
13794;DHT22;31160;49.500;7.772;2023-04-25T09:36:09;9.40;99.90
13794;DHT22;31160;49.500;7.772;2023-04-25T09:39:12;9.40;99.90
13794;DHT22;31160;49.500;7.772;2023-04-25T09:41:47;9.90;99.90
13794;DHT22;31160;49.500;7.772;2023-04-25T09:44:13;10.40;99.90
13794;DHT22;31160;49.500;7.772;2023-04-25T09:46:42;10.70;99.90
13794;DHT22;31160;49.500;7.772;2023-04-25T09:49:20;10.90;99.90
13794;DHT22;31160;49.500;7.772;2023-04-25T09:52:01;11.00;99.90
13794;DHT22;31160;49.500;7.772;2023-04-25T09:54:40;11.00;99.90
13794;DHT22;31160;49.500;7.772;2023-04-25T09:57:19;11.20;99.90
13794;DHT22;31160;49.500;7.772;2023-04-25T09:59:50;11.00;99.90
13794;DHT22;31160;49.500;7.772;2023-04-25T10:02:18;10.80;99.90
13794;DHT22;31160;49.500;7.772;2023-04-25T10:04:53;10.30;99.90
13794;DHT22;31160;49.500;7.772;2023-04-25T10:07:30;10.10;99.90
13794;DHT22;31160;49.500;7.772;2023-04-25T10:10:00;9.90;99.90
13794;DHT22;31160;49.500;7.772;2023-04-25T10:12:29;10.20;99.90
13794;DHT22;31160;49.500;7.772;2023-04-25T10:14:58;10.50;99.90
13794;DHT22;31160;49.500;7.772;2023-04-25T10:17:26;11.10;99.90
13794;DHT22;31160;49.500;7.772;2023-04-25T10:19:56;11.30;99.90
13794;DHT22;31160;49.500;7.772;2023-04-25T10:22:32;11.40;99.90
13794;DHT22;31160;49.500;7.772;2023-04-25T10:25:01;11.40;99.90
13794;DHT22;31160;49.500;7.772;2023-04-25T10:27:31;11.20;99.90
13794;DHT22;31160;49.500;7.772;2023-04-25T10:30:05;10.80;99.90
13794;DHT22;31160;49.500;7.772;2023-04-25T10:32:33;11.00;99.90
13794;DHT22;31160;49.500;7.772;2023-04-25T10:35:23;11.30;99.90
13794;DHT22;31160;49.500;7.772;2023-04-25T10:38:04;11.40;99.90
13794;DHT22;31160;49.500;7.772;2023-04-25T10:40:32;10.60;99.90
13794;DHT22;31160;49.500;7.772;2023-04-25T10:46:01;11.50;99.90
13794;DHT22;31160;49.500;7.772;2023-04-25T10:48:31;11.50;99.90
13794;DHT22;31160;49.500;7.772;2023-04-25T10:51:11;11.50;99.90
13794;DHT22;31160;49.500;7.772;2023-04-25T10:53:38;11.10;99.90
13794;DHT22;31160;49.500;7.772;2023-04-25T10:56:21;11.10;99.90
13794;DHT22;31160;49.500;7.772;2023-04-25T10:58:49;11.00;99.90
13794;DHT22;31160;49.500;7.772;2023-04-25T11:01:24;10.40;99.90
13794;DHT22;31160;49.500;7.772;2023-04-25T11:03:57;10.30;99.90
13794;DHT22;31160;49.500;7.772;2023-04-25T11:06:54;10.20;99.90
13794;DHT22;31160;49.500;7.772;2023-04-25T11:09:38;10.40;99.90
13794;DHT22;31160;49.500;7.772;2023-04-25T11:12:07;10.30;99.90
13794;DHT22;31160;49.500;7.772;2023-04-25T11:14:35;10.50;99.90
13794;DHT22;31160;49.500;7.772;2023-04-25T11:17:02;10.80;99.90
13794;DHT22;31160;49.500;7.772;2023-04-25T11:19:29;10.90;99.90
13794;DHT22;31160;49.500;7.772;2023-04-25T11:21:58;11.10;99.90
13794;DHT22;31160;49.500;7.772;2023-04-25T11:24:33;11.70;99.90
13794;DHT22;31160;49.500;7.772;2023-04-25T11:27:02;11.90;99.90
13794;DHT22;31160;49.500;7.772;2023-04-25T11:29:31;12.30;99.90
13794;DHT22;31160;49.500;7.772;2023-04-25T11:31:58;12.20;99.90
13794;DHT22;31160;49.500;7.772;2023-04-25T11:34:30;12.20;99.90
13794;DHT22;31160;49.500;7.772;2023-04-25T11:36:58;12.10;99.90
13794;DHT22;31160;49.500;7.772;2023-04-25T11:39:26;12.30;99.90
13794;DHT22;31160;49.500;7.772;2023-04-25T11:41:54;12.30;99.90
13794;DHT22;31160;49.500;7.772;2023-04-25T11:44:22;12.20;99.90
13794;DHT22;31160;49.500;7.772;2023-04-25T11:46:48;12.40;99.90
13794;DHT22;31160;49.500;7.772;2023-04-25T11:49:15;12.40;99.90
13794;DHT22;31160;49.500;7.772;2023-04-25T11:51:46;12.00;99.90
13794;DHT22;31160;49.500;7.772;2023-04-25T11:54:14;11.30;99.90
13794;DHT22;31160;49.500;7.772;2023-04-25T11:56:45;10.80;99.90
13794;DHT22;31160;49.500;7.772;2023-04-25T11:59:13;11.30;99.90
13794;DHT22;31160;49.500;7.772;2023-04-25T12:01:47;12.00;99.90
13794;DHT22;31160;49.500;7.772;2023-04-25T12:04:21;11.80;99.90
13794;DHT22;31160;49.500;7.772;2023-04-25T12:06:50;12.30;99.90
13794;DHT22;31160;49.500;7.772;2023-04-25T12:09:20;12.30;99.90
13794;DHT22;31160;49.500;7.772;2023-04-25T12:11:52;12.80;99.90
13794;DHT22;31160;49.500;7.772;2023-04-25T12:14:27;12.60;99.90
13794;DHT22;31160;49.500;7.772;2023-04-25T12:16:56;12.60;99.90
13794;DHT22;31160;49.500;7.772;2023-04-25T12:19:32;12.80;99.90
13794;DHT22;31160;49.500;7.772;2023-04-25T12:22:00;12.00;99.90
13794;DHT22;31160;49.500;7.772;2023-04-25T12:24:27;11.20;99.90
13794;DHT22;31160;49.500;7.772;2023-04-25T12:29:30;10.80;99.90
13794;DHT22;31160;49.500;7.772;2023-04-25T12:32:13;11.10;99.90
13794;DHT22;31160;49.500;7.772;2023-04-25T12:34:41;11.30;99.90
13794;DHT22;31160;49.500;7.772;2023-04-25T12:37:08;11.50;99.90
13794;DHT22;31160;49.500;7.772;2023-04-25T12:39:35;11.60;99.90
13794;DHT22;31160;49.500;7.772;2023-04-25T12:42:01;11.40;99.90
13794;DHT22;31160;49.500;7.772;2023-04-25T12:44:28;11.50;99.90
13794;DHT22;31160;49.500;7.772;2023-04-25T12:46:55;11.40;99.90
13794;DHT22;31160;49.500;7.772;2023-04-25T12:49:22;11.40;99.90
13794;DHT22;31160;49.500;7.772;2023-04-25T12:51:49;11.60;99.90
13794;DHT22;31160;49.500;7.772;2023-04-25T12:54:18;12.00;99.90
13794;DHT22;31160;49.500;7.772;2023-04-25T12:56:44;11.90;99.90
13794;DHT22;31160;49.500;7.772;2023-04-25T12:59:12;12.10;99.90
13794;DHT22;31160;49.500;7.772;2023-04-25T13:01:39;12.30;99.90
13794;DHT22;31160;49.500;7.772;2023-04-25T13:04:06;12.60;99.90
13794;DHT22;31160;49.500;7.772;2023-04-25T13:06:33;12.60;99.90
13794;DHT22;31160;49.500;7.772;2023-04-25T13:08:59;12.70;99.90
13794;DHT22;31160;49.500;7.772;2023-04-25T13:11:26;12.70;99.90
13794;DHT22;31160;49.500;7.772;2023-04-25T13:13:53;12.40;99.90
13794;DHT22;31160;49.500;7.772;2023-04-25T13:16:20;12.30;99.90
13794;DHT22;31160;49.500;7.772;2023-04-25T13:18:48;11.70;99.90
13794;DHT22;31160;49.500;7.772;2023-04-25T13:21:15;11.20;99.90
13794;DHT22;31160;49.500;7.772;2023-04-25T13:23:42;11.00;99.90
13794;DHT22;31160;49.500;7.772;2023-04-25T13:26:13;10.60;99.90
13794;DHT22;31160;49.500;7.772;2023-04-25T13:28:39;10.50;99.90
13794;DHT22;31160;49.500;7.772;2023-04-25T13:31:10;10.70;99.90
13794;DHT22;31160;49.500;7.772;2023-04-25T13:33:37;10.90;99.90
13794;DHT22;31160;49.500;7.772;2023-04-25T13:36:03;10.80;99.90
13794;DHT22;31160;49.500;7.772;2023-04-25T13:38:30;11.10;99.90
13794;DHT22;31160;49.500;7.772;2023-04-25T13:40:57;11.30;99.90
13794;DHT22;31160;49.500;7.772;2023-04-25T13:43:24;11.60;99.90
13794;DHT22;31160;49.500;7.772;2023-04-25T13:45:50;11.80;99.90
13794;DHT22;31160;49.500;7.772;2023-04-25T13:48:18;11.60;99.90
13794;DHT22;31160;49.500;7.772;2023-04-25T13:50:45;11.60;99.90
13794;DHT22;31160;49.500;7.772;2023-04-25T13:53:12;11.50;99.90
13794;DHT22;31160;49.500;7.772;2023-04-25T13:55:39;11.40;99.90
13794;DHT22;31160;49.500;7.772;2023-04-25T13:58:06;11.20;99.90
13794;DHT22;31160;49.500;7.772;2023-04-25T14:00:37;11.30;99.90
13794;DHT22;31160;49.500;7.772;2023-04-25T14:03:05;11.50;99.90
13794;DHT22;31160;49.500;7.772;2023-04-25T14:05:36;11.60;99.90
13794;DHT22;31160;49.500;7.772;2023-04-25T14:08:07;11.80;99.90
13794;DHT22;31160;49.500;7.772;2023-04-25T14:10:34;11.90;99.90
13794;DHT22;31160;49.500;7.772;2023-04-25T14:13:02;12.00;99.90
13794;DHT22;31160;49.500;7.772;2023-04-25T14:15:33;12.20;99.90
13794;DHT22;31160;49.500;7.772;2023-04-25T14:18:01;12.30;99.90
13794;DHT22;31160;49.500;7.772;2023-04-25T14:20:28;12.30;99.90
13794;DHT22;31160;49.500;7.772;2023-04-25T14:22:55;12.30;99.90
13794;DHT22;31160;49.500;7.772;2023-04-25T14:25:24;12.40;99.90
13794;DHT22;31160;49.500;7.772;2023-04-25T14:27:52;12.40;99.90
13794;DHT22;31160;49.500;7.772;2023-04-25T14:30:19;12.50;98.80
13794;DHT22;31160;49.500;7.772;2023-04-25T14:32:48;12.40;98.80
13794;DHT22;31160;49.500;7.772;2023-04-25T14:35:16;12.80;99.30
13794;DHT22;31160;49.500;7.772;2023-04-25T14:37:42;13.00;98.50
13794;DHT22;31160;49.500;7.772;2023-04-25T14:40:09;12.70;98.80
13794;DHT22;31160;49.500;7.772;2023-04-25T14:42:37;12.90;99.00
13794;DHT22;31160;49.500;7.772;2023-04-25T14:45:05;13.00;98.80
13794;DHT22;31160;49.500;7.772;2023-04-25T14:47:33;12.70;97.30
13794;DHT22;31160;49.500;7.772;2023-04-25T14:50:00;12.50;97.90
13794;DHT22;31160;49.500;7.772;2023-04-25T14:52:28;12.30;98.50
13794;DHT22;31160;49.500;7.772;2023-04-25T14:54:55;12.30;98.60
13794;DHT22;31160;49.500;7.772;2023-04-25T14:57:22;12.00;98.40
13794;DHT22;31160;49.500;7.772;2023-04-25T14:59:48;12.40;97.90
13794;DHT22;31160;49.500;7.772;2023-04-25T15:02:15;12.60;97.50
13794;DHT22;31160;49.500;7.772;2023-04-25T15:04:42;12.40;97.10
13794;DHT22;31160;49.500;7.772;2023-04-25T15:07:09;12.10;97.50
13794;DHT22;31160;49.500;7.772;2023-04-25T15:09:36;12.10;96.80
13794;DHT22;31160;49.500;7.772;2023-04-25T15:12:03;11.90;97.90
13794;DHT22;31160;49.500;7.772;2023-04-25T15:14:30;12.00;97.40
13794;DHT22;31160;49.500;7.772;2023-04-25T15:16:57;12.10;97.70
13794;DHT22;31160;49.500;7.772;2023-04-25T15:19:23;12.20;97.60
13794;DHT22;31160;49.500;7.772;2023-04-25T15:21:50;12.10;97.90
13794;DHT22;31160;49.500;7.772;2023-04-25T15:24:17;11.90;98.30
13794;DHT22;31160;49.500;7.772;2023-04-25T15:26:44;11.90;98.40
13794;DHT22;31160;49.500;7.772;2023-04-25T15:29:12;11.90;98.80
13794;DHT22;31160;49.500;7.772;2023-04-25T15:31:39;11.70;98.60
13794;DHT22;31160;49.500;7.772;2023-04-25T15:34:05;11.50;98.50
13794;DHT22;31160;49.500;7.772;2023-04-25T15:36:32;11.10;99.60
13794;DHT22;31160;49.500;7.772;2023-04-25T15:38:59;11.00;99.60
13794;DHT22;31160;49.500;7.772;2023-04-25T15:41:25;11.10;99.30
13794;DHT22;31160;49.500;7.772;2023-04-25T15:43:52;11.10;99.40
13794;DHT22;31160;49.500;7.772;2023-04-25T15:46:20;11.20;99.10
13794;DHT22;31160;49.500;7.772;2023-04-25T15:48:49;11.30;98.60
13794;DHT22;31160;49.500;7.772;2023-04-25T15:51:15;11.20;98.60
13794;DHT22;31160;49.500;7.772;2023-04-25T15:53:42;11.10;98.10
13794;DHT22;31160;49.500;7.772;2023-04-25T15:56:09;10.80;98.30
13794;DHT22;31160;49.500;7.772;2023-04-25T15:58:36;10.60;99.10
13794;DHT22;31160;49.500;7.772;2023-04-25T16:01:03;10.70;99.90
13794;DHT22;31160;49.500;7.772;2023-04-25T16:03:31;10.90;99.40
13794;DHT22;31160;49.500;7.772;2023-04-25T16:06:01;11.00;99.10